<?xml version="1.0" encoding="UTF-8" standalone="no" ?>
<gpx xmlns="http://www.topografix.com/GPX/1/1" xmlns:xsi="http://www.w3.org/2001/XMLSchema-instance" xsi:schemaLocation="http://www.topografix.com/GPX/1/1 http://www.topografix.com/GPX/1/1/gpx.xsd" version="1.1" creator="VisuGPX - https://www.visugpx.com">
  <metadata>
    <name>OMS CHENOVE Marche du vendredi 13 mars 2012</name>
    <desc><![CDATA[De Velars à Corcelles]]></desc>
  </metadata>
  <trk>
    <name><![CDATA[OMS CHENOVE Marche du vendredi 13 mars 2012_1]]></name>
    <trkseg>
      <trkpt lat="47.31843" lon="4.90828">
        <ele>256.681</ele>
        <time>2012-04-13T08:26:11Z</time>
      </trkpt>
      <trkpt lat="47.31845" lon="4.9084">
        <ele>254.127</ele>
        <time>2012-04-13T08:26:22Z</time>
      </trkpt>
      <trkpt lat="47.31853" lon="4.90857">
        <ele>254.893</ele>
        <time>2012-04-13T08:26:33Z</time>
      </trkpt>
      <trkpt lat="47.31857" lon="4.90872">
        <ele>257.563</ele>
        <time>2012-04-13T08:26:44Z</time>
      </trkpt>
      <trkpt lat="47.31857" lon="4.90892">
        <ele>260.084</ele>
        <time>2012-04-13T08:26:55Z</time>
      </trkpt>
      <trkpt lat="47.31853" lon="4.90908">
        <ele>265.707</ele>
        <time>2012-04-13T08:27:06Z</time>
      </trkpt>
      <trkpt lat="47.31855" lon="4.90928">
        <ele>268.649</ele>
        <time>2012-04-13T08:27:17Z</time>
      </trkpt>
      <trkpt lat="47.31855" lon="4.90952">
        <ele>271.608</ele>
        <time>2012-04-13T08:27:28Z</time>
      </trkpt>
      <trkpt lat="47.3185" lon="4.90972">
        <ele>271.159</ele>
        <time>2012-04-13T08:27:39Z</time>
      </trkpt>
      <trkpt lat="47.31848" lon="4.9099">
        <ele>272.479</ele>
        <time>2012-04-13T08:27:50Z</time>
      </trkpt>
      <trkpt lat="47.31847" lon="4.91018">
        <ele>271.937</ele>
        <time>2012-04-13T08:28:01Z</time>
      </trkpt>
      <trkpt lat="47.31843" lon="4.91037">
        <ele>272.215</ele>
        <time>2012-04-13T08:28:12Z</time>
      </trkpt>
      <trkpt lat="47.31838" lon="4.91055">
        <ele>271.179</ele>
        <time>2012-04-13T08:28:23Z</time>
      </trkpt>
      <trkpt lat="47.31828" lon="4.91067">
        <ele>270.625</ele>
        <time>2012-04-13T08:28:34Z</time>
      </trkpt>
      <trkpt lat="47.31822" lon="4.91065">
        <ele>271.41</ele>
        <time>2012-04-13T08:28:45Z</time>
      </trkpt>
      <trkpt lat="47.31812" lon="4.91065">
        <ele>269.838</ele>
        <time>2012-04-13T08:28:56Z</time>
      </trkpt>
      <trkpt lat="47.31797" lon="4.91068">
        <ele>269.497</ele>
        <time>2012-04-13T08:29:07Z</time>
      </trkpt>
      <trkpt lat="47.3179" lon="4.91072">
        <ele>267.698</ele>
        <time>2012-04-13T08:29:18Z</time>
      </trkpt>
      <trkpt lat="47.31787" lon="4.91072">
        <ele>267.423</ele>
        <time>2012-04-13T08:29:29Z</time>
      </trkpt>
      <trkpt lat="47.31792" lon="4.9107">
        <ele>268.11</ele>
        <time>2012-04-13T08:29:40Z</time>
      </trkpt>
      <trkpt lat="47.31772" lon="4.91082">
        <ele>267.35</ele>
        <time>2012-04-13T08:29:51Z</time>
      </trkpt>
      <trkpt lat="47.31765" lon="4.91092">
        <ele>268.964</ele>
        <time>2012-04-13T08:30:02Z</time>
      </trkpt>
      <trkpt lat="47.31768" lon="4.91123">
        <ele>272.371</ele>
        <time>2012-04-13T08:30:13Z</time>
      </trkpt>
      <trkpt lat="47.31775" lon="4.91147">
        <ele>273.787</ele>
        <time>2012-04-13T08:30:24Z</time>
      </trkpt>
      <trkpt lat="47.31783" lon="4.9117">
        <ele>278.688</ele>
        <time>2012-04-13T08:30:35Z</time>
      </trkpt>
      <trkpt lat="47.31777" lon="4.91192">
        <ele>282.444</ele>
        <time>2012-04-13T08:30:46Z</time>
      </trkpt>
      <trkpt lat="47.31767" lon="4.91213">
        <ele>284.157</ele>
        <time>2012-04-13T08:30:57Z</time>
      </trkpt>
      <trkpt lat="47.31753" lon="4.91235">
        <ele>283.708</ele>
        <time>2012-04-13T08:31:08Z</time>
      </trkpt>
      <trkpt lat="47.31742" lon="4.91255">
        <ele>282.902</ele>
        <time>2012-04-13T08:31:19Z</time>
      </trkpt>
      <trkpt lat="47.31733" lon="4.91273">
        <ele>282.62</ele>
        <time>2012-04-13T08:31:30Z</time>
      </trkpt>
      <trkpt lat="47.31728" lon="4.91282">
        <ele>281.975</ele>
        <time>2012-04-13T08:31:41Z</time>
      </trkpt>
      <trkpt lat="47.31725" lon="4.91297">
        <ele>283.072</ele>
        <time>2012-04-13T08:31:52Z</time>
      </trkpt>
      <trkpt lat="47.31713" lon="4.91315">
        <ele>281.249</ele>
        <time>2012-04-13T08:32:03Z</time>
      </trkpt>
      <trkpt lat="47.31708" lon="4.91328">
        <ele>281.79</ele>
        <time>2012-04-13T08:32:14Z</time>
      </trkpt>
      <trkpt lat="47.31695" lon="4.91328">
        <ele>281.248</ele>
        <time>2012-04-13T08:32:25Z</time>
      </trkpt>
      <trkpt lat="47.31677" lon="4.9133">
        <ele>279.515</ele>
        <time>2012-04-13T08:32:36Z</time>
      </trkpt>
      <trkpt lat="47.31662" lon="4.91332">
        <ele>279.202</ele>
        <time>2012-04-13T08:32:47Z</time>
      </trkpt>
      <trkpt lat="47.31645" lon="4.91333">
        <ele>275.826</ele>
        <time>2012-04-13T08:32:58Z</time>
      </trkpt>
      <trkpt lat="47.3163" lon="4.9133">
        <ele>276.437</ele>
        <time>2012-04-13T08:33:09Z</time>
      </trkpt>
      <trkpt lat="47.31613" lon="4.91325">
        <ele>275.709</ele>
        <time>2012-04-13T08:33:20Z</time>
      </trkpt>
      <trkpt lat="47.31597" lon="4.91323">
        <ele>277.657</ele>
        <time>2012-04-13T08:33:31Z</time>
      </trkpt>
      <trkpt lat="47.31583" lon="4.91325">
        <ele>279.577</ele>
        <time>2012-04-13T08:33:42Z</time>
      </trkpt>
      <trkpt lat="47.31565" lon="4.9133">
        <ele>278.683</ele>
        <time>2012-04-13T08:33:53Z</time>
      </trkpt>
      <trkpt lat="47.3155" lon="4.9133">
        <ele>280.129</ele>
        <time>2012-04-13T08:34:04Z</time>
      </trkpt>
      <trkpt lat="47.31537" lon="4.9132">
        <ele>280.576</ele>
        <time>2012-04-13T08:34:15Z</time>
      </trkpt>
      <trkpt lat="47.31525" lon="4.91303">
        <ele>279.293</ele>
        <time>2012-04-13T08:34:26Z</time>
      </trkpt>
      <trkpt lat="47.31517" lon="4.91287">
        <ele>277.888</ele>
        <time>2012-04-13T08:34:37Z</time>
      </trkpt>
      <trkpt lat="47.3152" lon="4.91272">
        <ele>279.128</ele>
        <time>2012-04-13T08:34:48Z</time>
      </trkpt>
      <trkpt lat="47.3152" lon="4.91265">
        <ele>279.417</ele>
        <time>2012-04-13T08:34:59Z</time>
      </trkpt>
      <trkpt lat="47.3152" lon="4.91265">
        <ele>279.417</ele>
        <time>2012-04-13T08:35:10Z</time>
      </trkpt>
      <trkpt lat="47.3152" lon="4.91265">
        <ele>279.417</ele>
        <time>2012-04-13T08:35:21Z</time>
      </trkpt>
      <trkpt lat="47.3152" lon="4.91265">
        <ele>279.417</ele>
        <time>2012-04-13T08:35:32Z</time>
      </trkpt>
      <trkpt lat="47.3152" lon="4.91265">
        <ele>279.08</ele>
        <time>2012-04-13T08:35:43Z</time>
      </trkpt>
      <trkpt lat="47.31508" lon="4.9126">
        <ele>280.582</ele>
        <time>2012-04-13T08:35:54Z</time>
      </trkpt>
      <trkpt lat="47.31493" lon="4.91258">
        <ele>280.794</ele>
        <time>2012-04-13T08:36:05Z</time>
      </trkpt>
      <trkpt lat="47.31478" lon="4.91257">
        <ele>280.716</ele>
        <time>2012-04-13T08:36:16Z</time>
      </trkpt>
      <trkpt lat="47.31463" lon="4.91257">
        <ele>279.722</ele>
        <time>2012-04-13T08:36:27Z</time>
      </trkpt>
      <trkpt lat="47.31448" lon="4.91258">
        <ele>279.82</ele>
        <time>2012-04-13T08:36:38Z</time>
      </trkpt>
      <trkpt lat="47.31437" lon="4.91258">
        <ele>280.222</ele>
        <time>2012-04-13T08:36:49Z</time>
      </trkpt>
      <trkpt lat="47.31422" lon="4.91262">
        <ele>281.828</ele>
        <time>2012-04-13T08:37:00Z</time>
      </trkpt>
      <trkpt lat="47.31407" lon="4.91267">
        <ele>282.654</ele>
        <time>2012-04-13T08:37:11Z</time>
      </trkpt>
      <trkpt lat="47.31392" lon="4.91273">
        <ele>284.146</ele>
        <time>2012-04-13T08:37:22Z</time>
      </trkpt>
      <trkpt lat="47.31377" lon="4.91278">
        <ele>285.05</ele>
        <time>2012-04-13T08:37:33Z</time>
      </trkpt>
      <trkpt lat="47.31365" lon="4.91282">
        <ele>285.788</ele>
        <time>2012-04-13T08:37:44Z</time>
      </trkpt>
      <trkpt lat="47.31352" lon="4.91287">
        <ele>285.855</ele>
        <time>2012-04-13T08:37:55Z</time>
      </trkpt>
      <trkpt lat="47.31337" lon="4.91295">
        <ele>285.317</ele>
        <time>2012-04-13T08:38:06Z</time>
      </trkpt>
      <trkpt lat="47.31323" lon="4.913">
        <ele>285.11</ele>
        <time>2012-04-13T08:38:17Z</time>
      </trkpt>
      <trkpt lat="47.31305" lon="4.91308">
        <ele>284.409</ele>
        <time>2012-04-13T08:38:28Z</time>
      </trkpt>
      <trkpt lat="47.31293" lon="4.91313">
        <ele>283.988</ele>
        <time>2012-04-13T08:38:39Z</time>
      </trkpt>
      <trkpt lat="47.31275" lon="4.91317">
        <ele>284.516</ele>
        <time>2012-04-13T08:38:50Z</time>
      </trkpt>
      <trkpt lat="47.31258" lon="4.91318">
        <ele>283.206</ele>
        <time>2012-04-13T08:39:01Z</time>
      </trkpt>
      <trkpt lat="47.31243" lon="4.91318">
        <ele>283.487</ele>
        <time>2012-04-13T08:39:12Z</time>
      </trkpt>
      <trkpt lat="47.31228" lon="4.91315">
        <ele>283.984</ele>
        <time>2012-04-13T08:39:23Z</time>
      </trkpt>
      <trkpt lat="47.31213" lon="4.91308">
        <ele>284.041</ele>
        <time>2012-04-13T08:39:34Z</time>
      </trkpt>
      <trkpt lat="47.31197" lon="4.91305">
        <ele>284.43</ele>
        <time>2012-04-13T08:39:45Z</time>
      </trkpt>
      <trkpt lat="47.3118" lon="4.913">
        <ele>283.899</ele>
        <time>2012-04-13T08:39:56Z</time>
      </trkpt>
      <trkpt lat="47.31165" lon="4.91305">
        <ele>286.058</ele>
        <time>2012-04-13T08:40:07Z</time>
      </trkpt>
      <trkpt lat="47.31148" lon="4.91305">
        <ele>288.96</ele>
        <time>2012-04-13T08:40:18Z</time>
      </trkpt>
      <trkpt lat="47.31133" lon="4.9129">
        <ele>288.345</ele>
        <time>2012-04-13T08:40:29Z</time>
      </trkpt>
      <trkpt lat="47.31118" lon="4.91278">
        <ele>289.253</ele>
        <time>2012-04-13T08:40:40Z</time>
      </trkpt>
      <trkpt lat="47.31107" lon="4.91265">
        <ele>291.043</ele>
        <time>2012-04-13T08:40:51Z</time>
      </trkpt>
      <trkpt lat="47.31092" lon="4.91255">
        <ele>292.186</ele>
        <time>2012-04-13T08:41:02Z</time>
      </trkpt>
      <trkpt lat="47.31078" lon="4.9125">
        <ele>293.165</ele>
        <time>2012-04-13T08:41:13Z</time>
      </trkpt>
      <trkpt lat="47.31067" lon="4.91242">
        <ele>294.445</ele>
        <time>2012-04-13T08:41:24Z</time>
      </trkpt>
      <trkpt lat="47.31053" lon="4.91237">
        <ele>296.014</ele>
        <time>2012-04-13T08:41:35Z</time>
      </trkpt>
      <trkpt lat="47.3104" lon="4.91233">
        <ele>297.95</ele>
        <time>2012-04-13T08:41:46Z</time>
      </trkpt>
      <trkpt lat="47.31025" lon="4.91227">
        <ele>298.336</ele>
        <time>2012-04-13T08:41:57Z</time>
      </trkpt>
      <trkpt lat="47.31013" lon="4.91227">
        <ele>301.105</ele>
        <time>2012-04-13T08:42:08Z</time>
      </trkpt>
      <trkpt lat="47.31002" lon="4.9123">
        <ele>302.703</ele>
        <time>2012-04-13T08:42:19Z</time>
      </trkpt>
      <trkpt lat="47.30983" lon="4.91228">
        <ele>301.571</ele>
        <time>2012-04-13T08:42:30Z</time>
      </trkpt>
      <trkpt lat="47.30968" lon="4.91235">
        <ele>301.429</ele>
        <time>2012-04-13T08:42:41Z</time>
      </trkpt>
      <trkpt lat="47.30953" lon="4.91238">
        <ele>301.786</ele>
        <time>2012-04-13T08:42:52Z</time>
      </trkpt>
      <trkpt lat="47.30937" lon="4.91238">
        <ele>302.251</ele>
        <time>2012-04-13T08:43:03Z</time>
      </trkpt>
      <trkpt lat="47.30918" lon="4.91243">
        <ele>303.357</ele>
        <time>2012-04-13T08:43:14Z</time>
      </trkpt>
      <trkpt lat="47.309" lon="4.91242">
        <ele>303.028</ele>
        <time>2012-04-13T08:43:25Z</time>
      </trkpt>
      <trkpt lat="47.30882" lon="4.91243">
        <ele>302.823</ele>
        <time>2012-04-13T08:43:36Z</time>
      </trkpt>
      <trkpt lat="47.3087" lon="4.9124">
        <ele>304.313</ele>
        <time>2012-04-13T08:43:47Z</time>
      </trkpt>
      <trkpt lat="47.30853" lon="4.91237">
        <ele>305.377</ele>
        <time>2012-04-13T08:43:58Z</time>
      </trkpt>
      <trkpt lat="47.30837" lon="4.91232">
        <ele>302.894</ele>
        <time>2012-04-13T08:44:09Z</time>
      </trkpt>
      <trkpt lat="47.3082" lon="4.91228">
        <ele>302.932</ele>
        <time>2012-04-13T08:44:20Z</time>
      </trkpt>
      <trkpt lat="47.30803" lon="4.91223">
        <ele>300.451</ele>
        <time>2012-04-13T08:44:31Z</time>
      </trkpt>
      <trkpt lat="47.30787" lon="4.91218">
        <ele>297.305</ele>
        <time>2012-04-13T08:44:42Z</time>
      </trkpt>
      <trkpt lat="47.30772" lon="4.91213">
        <ele>296.413</ele>
        <time>2012-04-13T08:44:53Z</time>
      </trkpt>
      <trkpt lat="47.30757" lon="4.9121">
        <ele>297.045</ele>
        <time>2012-04-13T08:45:04Z</time>
      </trkpt>
      <trkpt lat="47.30743" lon="4.91205">
        <ele>299.739</ele>
        <time>2012-04-13T08:45:15Z</time>
      </trkpt>
      <trkpt lat="47.30728" lon="4.91197">
        <ele>300.765</ele>
        <time>2012-04-13T08:45:26Z</time>
      </trkpt>
      <trkpt lat="47.30713" lon="4.91192">
        <ele>302.77</ele>
        <time>2012-04-13T08:45:37Z</time>
      </trkpt>
      <trkpt lat="47.30698" lon="4.91187">
        <ele>303.854</ele>
        <time>2012-04-13T08:45:48Z</time>
      </trkpt>
      <trkpt lat="47.30685" lon="4.91182">
        <ele>305.638</ele>
        <time>2012-04-13T08:45:59Z</time>
      </trkpt>
      <trkpt lat="47.3067" lon="4.9118">
        <ele>308.411</ele>
        <time>2012-04-13T08:46:10Z</time>
      </trkpt>
      <trkpt lat="47.30655" lon="4.9118">
        <ele>310.673</ele>
        <time>2012-04-13T08:46:21Z</time>
      </trkpt>
      <trkpt lat="47.30638" lon="4.91183">
        <ele>312.085</ele>
        <time>2012-04-13T08:46:32Z</time>
      </trkpt>
      <trkpt lat="47.30625" lon="4.91187">
        <ele>315.291</ele>
        <time>2012-04-13T08:46:43Z</time>
      </trkpt>
      <trkpt lat="47.30612" lon="4.91197">
        <ele>320.145</ele>
        <time>2012-04-13T08:46:54Z</time>
      </trkpt>
      <trkpt lat="47.30603" lon="4.91207">
        <ele>326.372</ele>
        <time>2012-04-13T08:47:05Z</time>
      </trkpt>
      <trkpt lat="47.30593" lon="4.91223">
        <ele>327.917</ele>
        <time>2012-04-13T08:47:16Z</time>
      </trkpt>
      <trkpt lat="47.30593" lon="4.91228">
        <ele>329.101</ele>
        <time>2012-04-13T08:47:27Z</time>
      </trkpt>
      <trkpt lat="47.30592" lon="4.91228">
        <ele>329.074</ele>
        <time>2012-04-13T08:47:38Z</time>
      </trkpt>
      <trkpt lat="47.30593" lon="4.91235">
        <ele>331.654</ele>
        <time>2012-04-13T08:47:49Z</time>
      </trkpt>
      <trkpt lat="47.30592" lon="4.91245">
        <ele>334.004</ele>
        <time>2012-04-13T08:48:00Z</time>
      </trkpt>
      <trkpt lat="47.30592" lon="4.91262">
        <ele>335.527</ele>
        <time>2012-04-13T08:48:11Z</time>
      </trkpt>
      <trkpt lat="47.30588" lon="4.91278">
        <ele>331.911</ele>
        <time>2012-04-13T08:48:22Z</time>
      </trkpt>
      <trkpt lat="47.30595" lon="4.91292">
        <ele>329.447</ele>
        <time>2012-04-13T08:48:33Z</time>
      </trkpt>
      <trkpt lat="47.30602" lon="4.91312">
        <ele>328.008</ele>
        <time>2012-04-13T08:48:44Z</time>
      </trkpt>
      <trkpt lat="47.30603" lon="4.91332">
        <ele>327.838</ele>
        <time>2012-04-13T08:48:55Z</time>
      </trkpt>
      <trkpt lat="47.306" lon="4.91352">
        <ele>330.533</ele>
        <time>2012-04-13T08:49:06Z</time>
      </trkpt>
      <trkpt lat="47.30598" lon="4.91368">
        <ele>332.798</ele>
        <time>2012-04-13T08:49:17Z</time>
      </trkpt>
      <trkpt lat="47.30593" lon="4.91385">
        <ele>331.574</ele>
        <time>2012-04-13T08:49:28Z</time>
      </trkpt>
      <trkpt lat="47.30588" lon="4.914">
        <ele>332.711</ele>
        <time>2012-04-13T08:49:39Z</time>
      </trkpt>
      <trkpt lat="47.30582" lon="4.9141">
        <ele>336.865</ele>
        <time>2012-04-13T08:49:50Z</time>
      </trkpt>
      <trkpt lat="47.3057" lon="4.9142">
        <ele>340.716</ele>
        <time>2012-04-13T08:50:01Z</time>
      </trkpt>
      <trkpt lat="47.30563" lon="4.91427">
        <ele>342.096</ele>
        <time>2012-04-13T08:50:12Z</time>
      </trkpt>
      <trkpt lat="47.30552" lon="4.91428">
        <ele>344.044</ele>
        <time>2012-04-13T08:50:23Z</time>
      </trkpt>
      <trkpt lat="47.30542" lon="4.91432">
        <ele>349.394</ele>
        <time>2012-04-13T08:50:34Z</time>
      </trkpt>
      <trkpt lat="47.30533" lon="4.91437">
        <ele>354.763</ele>
        <time>2012-04-13T08:50:45Z</time>
      </trkpt>
      <trkpt lat="47.30528" lon="4.9144">
        <ele>355.166</ele>
        <time>2012-04-13T08:50:56Z</time>
      </trkpt>
      <trkpt lat="47.3052" lon="4.91443">
        <ele>354.808</ele>
        <time>2012-04-13T08:51:07Z</time>
      </trkpt>
      <trkpt lat="47.3051" lon="4.9145">
        <ele>357.706</ele>
        <time>2012-04-13T08:51:18Z</time>
      </trkpt>
      <trkpt lat="47.30502" lon="4.91453">
        <ele>361.554</ele>
        <time>2012-04-13T08:51:29Z</time>
      </trkpt>
      <trkpt lat="47.30485" lon="4.91457">
        <ele>364.332</ele>
        <time>2012-04-13T08:51:40Z</time>
      </trkpt>
      <trkpt lat="47.30468" lon="4.91465">
        <ele>366.041</ele>
        <time>2012-04-13T08:51:51Z</time>
      </trkpt>
      <trkpt lat="47.30455" lon="4.91468">
        <ele>369.306</ele>
        <time>2012-04-13T08:52:02Z</time>
      </trkpt>
      <trkpt lat="47.30442" lon="4.91475">
        <ele>368.432</ele>
        <time>2012-04-13T08:52:13Z</time>
      </trkpt>
      <trkpt lat="47.3042" lon="4.91482">
        <ele>365.771</ele>
        <time>2012-04-13T08:52:24Z</time>
      </trkpt>
      <trkpt lat="47.304" lon="4.91485">
        <ele>368.631</ele>
        <time>2012-04-13T08:52:35Z</time>
      </trkpt>
      <trkpt lat="47.30385" lon="4.91492">
        <ele>369.603</ele>
        <time>2012-04-13T08:52:46Z</time>
      </trkpt>
      <trkpt lat="47.30372" lon="4.9149">
        <ele>372.285</ele>
        <time>2012-04-13T08:52:57Z</time>
      </trkpt>
      <trkpt lat="47.30358" lon="4.91497">
        <ele>370.889</ele>
        <time>2012-04-13T08:53:08Z</time>
      </trkpt>
      <trkpt lat="47.30345" lon="4.91502">
        <ele>371.559</ele>
        <time>2012-04-13T08:53:19Z</time>
      </trkpt>
      <trkpt lat="47.3033" lon="4.91508">
        <ele>367.771</ele>
        <time>2012-04-13T08:53:30Z</time>
      </trkpt>
      <trkpt lat="47.30313" lon="4.91517">
        <ele>366.951</ele>
        <time>2012-04-13T08:53:41Z</time>
      </trkpt>
      <trkpt lat="47.30305" lon="4.91525">
        <ele>362.308</ele>
        <time>2012-04-13T08:53:52Z</time>
      </trkpt>
      <trkpt lat="47.3029" lon="4.91532">
        <ele>358.161</ele>
        <time>2012-04-13T08:54:03Z</time>
      </trkpt>
      <trkpt lat="47.30275" lon="4.9154">
        <ele>354.123</ele>
        <time>2012-04-13T08:54:14Z</time>
      </trkpt>
      <trkpt lat="47.30265" lon="4.91545">
        <ele>351.099</ele>
        <time>2012-04-13T08:54:25Z</time>
      </trkpt>
      <trkpt lat="47.30257" lon="4.91547">
        <ele>353.667</ele>
        <time>2012-04-13T08:54:36Z</time>
      </trkpt>
      <trkpt lat="47.30253" lon="4.9155">
        <ele>354.238</ele>
        <time>2012-04-13T08:54:47Z</time>
      </trkpt>
      <trkpt lat="47.30243" lon="4.91565">
        <ele>355.05</ele>
        <time>2012-04-13T08:54:58Z</time>
      </trkpt>
      <trkpt lat="47.30235" lon="4.91573">
        <ele>353.988</ele>
        <time>2012-04-13T08:55:09Z</time>
      </trkpt>
      <trkpt lat="47.30228" lon="4.9159">
        <ele>355.107</ele>
        <time>2012-04-13T08:55:20Z</time>
      </trkpt>
      <trkpt lat="47.30222" lon="4.91608">
        <ele>353.46</ele>
        <time>2012-04-13T08:55:31Z</time>
      </trkpt>
      <trkpt lat="47.30217" lon="4.91627">
        <ele>350.551</ele>
        <time>2012-04-13T08:55:42Z</time>
      </trkpt>
      <trkpt lat="47.30212" lon="4.91645">
        <ele>351.877</ele>
        <time>2012-04-13T08:55:53Z</time>
      </trkpt>
      <trkpt lat="47.30208" lon="4.91667">
        <ele>353.13</ele>
        <time>2012-04-13T08:56:04Z</time>
      </trkpt>
      <trkpt lat="47.30205" lon="4.9168">
        <ele>353.402</ele>
        <time>2012-04-13T08:56:15Z</time>
      </trkpt>
      <trkpt lat="47.302" lon="4.91698">
        <ele>352.101</ele>
        <time>2012-04-13T08:56:26Z</time>
      </trkpt>
      <trkpt lat="47.30197" lon="4.91717">
        <ele>353.173</ele>
        <time>2012-04-13T08:56:37Z</time>
      </trkpt>
      <trkpt lat="47.30192" lon="4.91728">
        <ele>356.2</ele>
        <time>2012-04-13T08:56:48Z</time>
      </trkpt>
      <trkpt lat="47.30187" lon="4.91747">
        <ele>356.708</ele>
        <time>2012-04-13T08:56:59Z</time>
      </trkpt>
      <trkpt lat="47.30183" lon="4.91757">
        <ele>358.006</ele>
        <time>2012-04-13T08:57:10Z</time>
      </trkpt>
      <trkpt lat="47.30175" lon="4.91772">
        <ele>359.836</ele>
        <time>2012-04-13T08:57:21Z</time>
      </trkpt>
      <trkpt lat="47.30167" lon="4.9179">
        <ele>361.411</ele>
        <time>2012-04-13T08:57:32Z</time>
      </trkpt>
      <trkpt lat="47.3016" lon="4.91802">
        <ele>363.848</ele>
        <time>2012-04-13T08:57:43Z</time>
      </trkpt>
      <trkpt lat="47.30153" lon="4.91813">
        <ele>364.851</ele>
        <time>2012-04-13T08:57:54Z</time>
      </trkpt>
      <trkpt lat="47.30148" lon="4.91825">
        <ele>365.487</ele>
        <time>2012-04-13T08:58:05Z</time>
      </trkpt>
      <trkpt lat="47.30145" lon="4.91843">
        <ele>364.572</ele>
        <time>2012-04-13T08:58:16Z</time>
      </trkpt>
      <trkpt lat="47.30142" lon="4.91858">
        <ele>368.11</ele>
        <time>2012-04-13T08:58:27Z</time>
      </trkpt>
      <trkpt lat="47.30143" lon="4.91872">
        <ele>372.424</ele>
        <time>2012-04-13T08:58:38Z</time>
      </trkpt>
      <trkpt lat="47.30143" lon="4.9189">
        <ele>374.695</ele>
        <time>2012-04-13T08:58:49Z</time>
      </trkpt>
      <trkpt lat="47.30142" lon="4.919">
        <ele>379.27</ele>
        <time>2012-04-13T08:59:00Z</time>
      </trkpt>
      <trkpt lat="47.3014" lon="4.91918">
        <ele>383.286</ele>
        <time>2012-04-13T08:59:11Z</time>
      </trkpt>
      <trkpt lat="47.30138" lon="4.91937">
        <ele>384.343</ele>
        <time>2012-04-13T08:59:22Z</time>
      </trkpt>
      <trkpt lat="47.30137" lon="4.91952">
        <ele>386.827</ele>
        <time>2012-04-13T08:59:33Z</time>
      </trkpt>
      <trkpt lat="47.30137" lon="4.91968">
        <ele>388.365</ele>
        <time>2012-04-13T08:59:44Z</time>
      </trkpt>
      <trkpt lat="47.30138" lon="4.91977">
        <ele>390.109</ele>
        <time>2012-04-13T08:59:55Z</time>
      </trkpt>
      <trkpt lat="47.3014" lon="4.91992">
        <ele>391.448</ele>
        <time>2012-04-13T09:00:06Z</time>
      </trkpt>
      <trkpt lat="47.30145" lon="4.92007">
        <ele>394.178</ele>
        <time>2012-04-13T09:00:17Z</time>
      </trkpt>
      <trkpt lat="47.30148" lon="4.9202">
        <ele>394.649</ele>
        <time>2012-04-13T09:00:28Z</time>
      </trkpt>
      <trkpt lat="47.30152" lon="4.92033">
        <ele>395.394</ele>
        <time>2012-04-13T09:00:39Z</time>
      </trkpt>
      <trkpt lat="47.30153" lon="4.92048">
        <ele>396.445</ele>
        <time>2012-04-13T09:00:50Z</time>
      </trkpt>
      <trkpt lat="47.30155" lon="4.92063">
        <ele>398.087</ele>
        <time>2012-04-13T09:01:01Z</time>
      </trkpt>
      <trkpt lat="47.3016" lon="4.92077">
        <ele>397.474</ele>
        <time>2012-04-13T09:01:12Z</time>
      </trkpt>
      <trkpt lat="47.30167" lon="4.92083">
        <ele>397.181</ele>
        <time>2012-04-13T09:01:23Z</time>
      </trkpt>
      <trkpt lat="47.3017" lon="4.92093">
        <ele>393.987</ele>
        <time>2012-04-13T09:01:34Z</time>
      </trkpt>
      <trkpt lat="47.30177" lon="4.92103">
        <ele>393.646</ele>
        <time>2012-04-13T09:01:45Z</time>
      </trkpt>
      <trkpt lat="47.30183" lon="4.9211">
        <ele>394.91</ele>
        <time>2012-04-13T09:01:56Z</time>
      </trkpt>
      <trkpt lat="47.30188" lon="4.92115">
        <ele>395.019</ele>
        <time>2012-04-13T09:02:07Z</time>
      </trkpt>
      <trkpt lat="47.30193" lon="4.9212">
        <ele>398.667</ele>
        <time>2012-04-13T09:02:18Z</time>
      </trkpt>
      <trkpt lat="47.30197" lon="4.92122">
        <ele>400.885</ele>
        <time>2012-04-13T09:02:29Z</time>
      </trkpt>
      <trkpt lat="47.30205" lon="4.9213">
        <ele>401.346</ele>
        <time>2012-04-13T09:02:40Z</time>
      </trkpt>
      <trkpt lat="47.30217" lon="4.92138">
        <ele>401.825</ele>
        <time>2012-04-13T09:02:51Z</time>
      </trkpt>
      <trkpt lat="47.30223" lon="4.92145">
        <ele>401.712</ele>
        <time>2012-04-13T09:03:02Z</time>
      </trkpt>
      <trkpt lat="47.30228" lon="4.92147">
        <ele>400.387</ele>
        <time>2012-04-13T09:03:13Z</time>
      </trkpt>
      <trkpt lat="47.30237" lon="4.92155">
        <ele>399.106</ele>
        <time>2012-04-13T09:03:24Z</time>
      </trkpt>
      <trkpt lat="47.30243" lon="4.9216">
        <ele>400.655</ele>
        <time>2012-04-13T09:03:35Z</time>
      </trkpt>
      <trkpt lat="47.30252" lon="4.92163">
        <ele>403.873</ele>
        <time>2012-04-13T09:03:46Z</time>
      </trkpt>
      <trkpt lat="47.30263" lon="4.92172">
        <ele>406.182</ele>
        <time>2012-04-13T09:03:57Z</time>
      </trkpt>
      <trkpt lat="47.3027" lon="4.9218">
        <ele>409.767</ele>
        <time>2012-04-13T09:04:08Z</time>
      </trkpt>
      <trkpt lat="47.30275" lon="4.92188">
        <ele>415.375</ele>
        <time>2012-04-13T09:04:19Z</time>
      </trkpt>
      <trkpt lat="47.30278" lon="4.92193">
        <ele>418.031</ele>
        <time>2012-04-13T09:04:30Z</time>
      </trkpt>
      <trkpt lat="47.30282" lon="4.922">
        <ele>419.444</ele>
        <time>2012-04-13T09:04:41Z</time>
      </trkpt>
      <trkpt lat="47.30288" lon="4.92213">
        <ele>423.041</ele>
        <time>2012-04-13T09:04:52Z</time>
      </trkpt>
      <trkpt lat="47.30292" lon="4.92218">
        <ele>425.849</ele>
        <time>2012-04-13T09:05:03Z</time>
      </trkpt>
      <trkpt lat="47.30295" lon="4.92222">
        <ele>427.104</ele>
        <time>2012-04-13T09:05:14Z</time>
      </trkpt>
      <trkpt lat="47.30295" lon="4.92223">
        <ele>427.746</ele>
        <time>2012-04-13T09:05:25Z</time>
      </trkpt>
      <trkpt lat="47.30295" lon="4.92225">
        <ele>427.712</ele>
        <time>2012-04-13T09:05:36Z</time>
      </trkpt>
      <trkpt lat="47.30295" lon="4.92225">
        <ele>427.712</ele>
        <time>2012-04-13T09:05:47Z</time>
      </trkpt>
      <trkpt lat="47.30295" lon="4.92225">
        <ele>427.712</ele>
        <time>2012-04-13T09:05:58Z</time>
      </trkpt>
      <trkpt lat="47.30297" lon="4.92225">
        <ele>428.049</ele>
        <time>2012-04-13T09:06:09Z</time>
      </trkpt>
      <trkpt lat="47.30297" lon="4.92227">
        <ele>427.901</ele>
        <time>2012-04-13T09:06:20Z</time>
      </trkpt>
      <trkpt lat="47.30297" lon="4.92227">
        <ele>427.901</ele>
        <time>2012-04-13T09:06:31Z</time>
      </trkpt>
      <trkpt lat="47.30297" lon="4.92227">
        <ele>428.368</ele>
        <time>2012-04-13T09:06:42Z</time>
      </trkpt>
      <trkpt lat="47.30298" lon="4.92228">
        <ele>428.936</ele>
        <time>2012-04-13T09:06:53Z</time>
      </trkpt>
      <trkpt lat="47.30298" lon="4.92228">
        <ele>428.936</ele>
        <time>2012-04-13T09:07:04Z</time>
      </trkpt>
      <trkpt lat="47.30298" lon="4.92228">
        <ele>428.874</ele>
        <time>2012-04-13T09:07:15Z</time>
      </trkpt>
      <trkpt lat="47.303" lon="4.9223">
        <ele>429.098</ele>
        <time>2012-04-13T09:07:26Z</time>
      </trkpt>
      <trkpt lat="47.30307" lon="4.92235">
        <ele>430.802</ele>
        <time>2012-04-13T09:07:37Z</time>
      </trkpt>
      <trkpt lat="47.30317" lon="4.92242">
        <ele>435.897</ele>
        <time>2012-04-13T09:07:48Z</time>
      </trkpt>
      <trkpt lat="47.30325" lon="4.92247">
        <ele>438.784</ele>
        <time>2012-04-13T09:07:59Z</time>
      </trkpt>
      <trkpt lat="47.30333" lon="4.92252">
        <ele>440.125</ele>
        <time>2012-04-13T09:08:10Z</time>
      </trkpt>
      <trkpt lat="47.3034" lon="4.92257">
        <ele>440.941</ele>
        <time>2012-04-13T09:08:21Z</time>
      </trkpt>
      <trkpt lat="47.30347" lon="4.92258">
        <ele>441.235</ele>
        <time>2012-04-13T09:08:32Z</time>
      </trkpt>
      <trkpt lat="47.30358" lon="4.92267">
        <ele>441.759</ele>
        <time>2012-04-13T09:08:43Z</time>
      </trkpt>
      <trkpt lat="47.30368" lon="4.92287">
        <ele>441.418</ele>
        <time>2012-04-13T09:08:54Z</time>
      </trkpt>
      <trkpt lat="47.30377" lon="4.92305">
        <ele>441.413</ele>
        <time>2012-04-13T09:09:05Z</time>
      </trkpt>
      <trkpt lat="47.30382" lon="4.92328">
        <ele>444.576</ele>
        <time>2012-04-13T09:09:16Z</time>
      </trkpt>
      <trkpt lat="47.30378" lon="4.92355">
        <ele>446.237</ele>
        <time>2012-04-13T09:09:27Z</time>
      </trkpt>
      <trkpt lat="47.30373" lon="4.92373">
        <ele>450.46</ele>
        <time>2012-04-13T09:09:38Z</time>
      </trkpt>
      <trkpt lat="47.30372" lon="4.9239">
        <ele>453.422</ele>
        <time>2012-04-13T09:09:49Z</time>
      </trkpt>
      <trkpt lat="47.30367" lon="4.92412">
        <ele>455.586</ele>
        <time>2012-04-13T09:10:00Z</time>
      </trkpt>
      <trkpt lat="47.30358" lon="4.92432">
        <ele>454.017</ele>
        <time>2012-04-13T09:10:11Z</time>
      </trkpt>
      <trkpt lat="47.30352" lon="4.92453">
        <ele>455.003</ele>
        <time>2012-04-13T09:10:22Z</time>
      </trkpt>
      <trkpt lat="47.30343" lon="4.92468">
        <ele>456.135</ele>
        <time>2012-04-13T09:10:33Z</time>
      </trkpt>
      <trkpt lat="47.30337" lon="4.92485">
        <ele>457.187</ele>
        <time>2012-04-13T09:10:44Z</time>
      </trkpt>
      <trkpt lat="47.30328" lon="4.925">
        <ele>457.417</ele>
        <time>2012-04-13T09:10:55Z</time>
      </trkpt>
      <trkpt lat="47.30317" lon="4.92517">
        <ele>456.508</ele>
        <time>2012-04-13T09:11:06Z</time>
      </trkpt>
      <trkpt lat="47.30307" lon="4.9253">
        <ele>456.025</ele>
        <time>2012-04-13T09:11:17Z</time>
      </trkpt>
      <trkpt lat="47.30295" lon="4.92547">
        <ele>455.121</ele>
        <time>2012-04-13T09:11:28Z</time>
      </trkpt>
      <trkpt lat="47.30282" lon="4.92562">
        <ele>453.99</ele>
        <time>2012-04-13T09:11:39Z</time>
      </trkpt>
      <trkpt lat="47.3027" lon="4.92578">
        <ele>453.265</ele>
        <time>2012-04-13T09:11:50Z</time>
      </trkpt>
      <trkpt lat="47.30257" lon="4.92588">
        <ele>452.888</ele>
        <time>2012-04-13T09:12:01Z</time>
      </trkpt>
      <trkpt lat="47.30243" lon="4.92597">
        <ele>453.144</ele>
        <time>2012-04-13T09:12:12Z</time>
      </trkpt>
      <trkpt lat="47.30232" lon="4.92605">
        <ele>453.195</ele>
        <time>2012-04-13T09:12:23Z</time>
      </trkpt>
      <trkpt lat="47.30225" lon="4.9261">
        <ele>453.831</ele>
        <time>2012-04-13T09:12:34Z</time>
      </trkpt>
      <trkpt lat="47.30218" lon="4.92612">
        <ele>455.186</ele>
        <time>2012-04-13T09:12:45Z</time>
      </trkpt>
      <trkpt lat="47.30213" lon="4.92613">
        <ele>458.503</ele>
        <time>2012-04-13T09:12:56Z</time>
      </trkpt>
      <trkpt lat="47.30205" lon="4.92612">
        <ele>461.951</ele>
        <time>2012-04-13T09:13:07Z</time>
      </trkpt>
      <trkpt lat="47.30198" lon="4.9261">
        <ele>467.614</ele>
        <time>2012-04-13T09:13:18Z</time>
      </trkpt>
      <trkpt lat="47.30192" lon="4.92612">
        <ele>470.984</ele>
        <time>2012-04-13T09:13:29Z</time>
      </trkpt>
      <trkpt lat="47.3018" lon="4.92605">
        <ele>473.971</ele>
        <time>2012-04-13T09:13:40Z</time>
      </trkpt>
      <trkpt lat="47.30172" lon="4.926">
        <ele>477.003</ele>
        <time>2012-04-13T09:13:51Z</time>
      </trkpt>
      <trkpt lat="47.30162" lon="4.92603">
        <ele>480.73</ele>
        <time>2012-04-13T09:14:02Z</time>
      </trkpt>
      <trkpt lat="47.30153" lon="4.92613">
        <ele>486.779</ele>
        <time>2012-04-13T09:14:13Z</time>
      </trkpt>
      <trkpt lat="47.3014" lon="4.92617">
        <ele>490.638</ele>
        <time>2012-04-13T09:14:24Z</time>
      </trkpt>
      <trkpt lat="47.30132" lon="4.9262">
        <ele>492.503</ele>
        <time>2012-04-13T09:14:35Z</time>
      </trkpt>
      <trkpt lat="47.30122" lon="4.92625">
        <ele>492.852</ele>
        <time>2012-04-13T09:14:46Z</time>
      </trkpt>
      <trkpt lat="47.30113" lon="4.92628">
        <ele>491.796</ele>
        <time>2012-04-13T09:14:57Z</time>
      </trkpt>
      <trkpt lat="47.30105" lon="4.92633">
        <ele>492.396</ele>
        <time>2012-04-13T09:15:08Z</time>
      </trkpt>
      <trkpt lat="47.301" lon="4.9264">
        <ele>493.7</ele>
        <time>2012-04-13T09:15:19Z</time>
      </trkpt>
      <trkpt lat="47.30095" lon="4.92645">
        <ele>497.013</ele>
        <time>2012-04-13T09:15:30Z</time>
      </trkpt>
      <trkpt lat="47.30083" lon="4.92648">
        <ele>502.193</ele>
        <time>2012-04-13T09:15:41Z</time>
      </trkpt>
      <trkpt lat="47.3007" lon="4.9265">
        <ele>506.356</ele>
        <time>2012-04-13T09:15:52Z</time>
      </trkpt>
      <trkpt lat="47.30058" lon="4.92652">
        <ele>508.853</ele>
        <time>2012-04-13T09:16:03Z</time>
      </trkpt>
      <trkpt lat="47.30048" lon="4.92655">
        <ele>509.269</ele>
        <time>2012-04-13T09:16:14Z</time>
      </trkpt>
      <trkpt lat="47.30043" lon="4.92658">
        <ele>509.978</ele>
        <time>2012-04-13T09:16:25Z</time>
      </trkpt>
      <trkpt lat="47.30043" lon="4.92658">
        <ele>509.978</ele>
        <time>2012-04-13T09:16:36Z</time>
      </trkpt>
      <trkpt lat="47.30043" lon="4.92658">
        <ele>510.004</ele>
        <time>2012-04-13T09:16:47Z</time>
      </trkpt>
      <trkpt lat="47.30043" lon="4.92658">
        <ele>510.273</ele>
        <time>2012-04-13T09:16:58Z</time>
      </trkpt>
      <trkpt lat="47.30043" lon="4.92658">
        <ele>510.796</ele>
        <time>2012-04-13T09:17:09Z</time>
      </trkpt>
      <trkpt lat="47.30042" lon="4.92658">
        <ele>510.471</ele>
        <time>2012-04-13T09:17:20Z</time>
      </trkpt>
      <trkpt lat="47.30042" lon="4.92658">
        <ele>510.598</ele>
        <time>2012-04-13T09:17:31Z</time>
      </trkpt>
      <trkpt lat="47.30042" lon="4.92658">
        <ele>510.418</ele>
        <time>2012-04-13T09:17:42Z</time>
      </trkpt>
      <trkpt lat="47.3004" lon="4.92658">
        <ele>510.654</ele>
        <time>2012-04-13T09:17:53Z</time>
      </trkpt>
      <trkpt lat="47.3004" lon="4.92658">
        <ele>510.943</ele>
        <time>2012-04-13T09:18:04Z</time>
      </trkpt>
      <trkpt lat="47.3004" lon="4.92658">
        <ele>510.943</ele>
        <time>2012-04-13T09:18:15Z</time>
      </trkpt>
      <trkpt lat="47.3004" lon="4.92658">
        <ele>510.943</ele>
        <time>2012-04-13T09:18:26Z</time>
      </trkpt>
      <trkpt lat="47.30038" lon="4.92648">
        <ele>509.955</ele>
        <time>2012-04-13T09:18:37Z</time>
      </trkpt>
      <trkpt lat="47.30032" lon="4.92635">
        <ele>510.73</ele>
        <time>2012-04-13T09:18:48Z</time>
      </trkpt>
      <trkpt lat="47.30022" lon="4.92625">
        <ele>512.099</ele>
        <time>2012-04-13T09:18:59Z</time>
      </trkpt>
      <trkpt lat="47.30015" lon="4.92613">
        <ele>513.247</ele>
        <time>2012-04-13T09:19:10Z</time>
      </trkpt>
      <trkpt lat="47.3001" lon="4.92598">
        <ele>516.047</ele>
        <time>2012-04-13T09:19:21Z</time>
      </trkpt>
      <trkpt lat="47.30007" lon="4.92583">
        <ele>517.111</ele>
        <time>2012-04-13T09:19:32Z</time>
      </trkpt>
      <trkpt lat="47.30005" lon="4.9258">
        <ele>516.57</ele>
        <time>2012-04-13T09:19:43Z</time>
      </trkpt>
      <trkpt lat="47.29992" lon="4.92563">
        <ele>515.12</ele>
        <time>2012-04-13T09:19:54Z</time>
      </trkpt>
      <trkpt lat="47.29982" lon="4.92548">
        <ele>516.783</ele>
        <time>2012-04-13T09:20:05Z</time>
      </trkpt>
      <trkpt lat="47.29972" lon="4.92537">
        <ele>517.725</ele>
        <time>2012-04-13T09:20:16Z</time>
      </trkpt>
      <trkpt lat="47.29963" lon="4.92523">
        <ele>519.482</ele>
        <time>2012-04-13T09:20:27Z</time>
      </trkpt>
      <trkpt lat="47.29958" lon="4.92518">
        <ele>519.625</ele>
        <time>2012-04-13T09:20:38Z</time>
      </trkpt>
      <trkpt lat="47.29955" lon="4.92513">
        <ele>518.411</ele>
        <time>2012-04-13T09:20:49Z</time>
      </trkpt>
      <trkpt lat="47.29948" lon="4.92513">
        <ele>517.48</ele>
        <time>2012-04-13T09:21:00Z</time>
      </trkpt>
      <trkpt lat="47.2994" lon="4.92518">
        <ele>518.544</ele>
        <time>2012-04-13T09:21:11Z</time>
      </trkpt>
      <trkpt lat="47.29933" lon="4.92522">
        <ele>520.145</ele>
        <time>2012-04-13T09:21:22Z</time>
      </trkpt>
      <trkpt lat="47.29927" lon="4.92523">
        <ele>523.57</ele>
        <time>2012-04-13T09:21:33Z</time>
      </trkpt>
      <trkpt lat="47.29922" lon="4.92527">
        <ele>524.032</ele>
        <time>2012-04-13T09:21:44Z</time>
      </trkpt>
      <trkpt lat="47.2992" lon="4.92532">
        <ele>528.515</ele>
        <time>2012-04-13T09:21:55Z</time>
      </trkpt>
      <trkpt lat="47.29918" lon="4.92535">
        <ele>531.913</ele>
        <time>2012-04-13T09:22:06Z</time>
      </trkpt>
      <trkpt lat="47.29917" lon="4.9254">
        <ele>532.672</ele>
        <time>2012-04-13T09:22:17Z</time>
      </trkpt>
      <trkpt lat="47.29915" lon="4.92543">
        <ele>533.713</ele>
        <time>2012-04-13T09:22:28Z</time>
      </trkpt>
      <trkpt lat="47.29912" lon="4.92548">
        <ele>534.362</ele>
        <time>2012-04-13T09:22:39Z</time>
      </trkpt>
      <trkpt lat="47.2991" lon="4.92553">
        <ele>533.268</ele>
        <time>2012-04-13T09:22:50Z</time>
      </trkpt>
      <trkpt lat="47.29908" lon="4.92555">
        <ele>535.239</ele>
        <time>2012-04-13T09:23:01Z</time>
      </trkpt>
      <trkpt lat="47.29907" lon="4.9256">
        <ele>537.241</ele>
        <time>2012-04-13T09:23:12Z</time>
      </trkpt>
      <trkpt lat="47.29905" lon="4.92565">
        <ele>537.992</ele>
        <time>2012-04-13T09:23:23Z</time>
      </trkpt>
      <trkpt lat="47.29903" lon="4.92567">
        <ele>538.541</ele>
        <time>2012-04-13T09:23:34Z</time>
      </trkpt>
      <trkpt lat="47.29902" lon="4.92573">
        <ele>539.386</ele>
        <time>2012-04-13T09:23:45Z</time>
      </trkpt>
      <trkpt lat="47.299" lon="4.92578">
        <ele>543.392</ele>
        <time>2012-04-13T09:23:56Z</time>
      </trkpt>
      <trkpt lat="47.29898" lon="4.92585">
        <ele>545.56</ele>
        <time>2012-04-13T09:24:07Z</time>
      </trkpt>
      <trkpt lat="47.29897" lon="4.92592">
        <ele>547.636</ele>
        <time>2012-04-13T09:24:18Z</time>
      </trkpt>
      <trkpt lat="47.29897" lon="4.92595">
        <ele>548.046</ele>
        <time>2012-04-13T09:24:29Z</time>
      </trkpt>
      <trkpt lat="47.29895" lon="4.926">
        <ele>548.171</ele>
        <time>2012-04-13T09:24:40Z</time>
      </trkpt>
      <trkpt lat="47.29895" lon="4.92605">
        <ele>549.902</ele>
        <time>2012-04-13T09:24:51Z</time>
      </trkpt>
      <trkpt lat="47.29893" lon="4.92608">
        <ele>552.06</ele>
        <time>2012-04-13T09:25:02Z</time>
      </trkpt>
      <trkpt lat="47.29893" lon="4.9261">
        <ele>554.377</ele>
        <time>2012-04-13T09:25:13Z</time>
      </trkpt>
      <trkpt lat="47.29892" lon="4.92615">
        <ele>557.166</ele>
        <time>2012-04-13T09:25:24Z</time>
      </trkpt>
      <trkpt lat="47.29892" lon="4.92618">
        <ele>558.924</ele>
        <time>2012-04-13T09:25:35Z</time>
      </trkpt>
      <trkpt lat="47.2989" lon="4.92625">
        <ele>558.869</ele>
        <time>2012-04-13T09:25:46Z</time>
      </trkpt>
      <trkpt lat="47.29888" lon="4.92632">
        <ele>560.337</ele>
        <time>2012-04-13T09:25:57Z</time>
      </trkpt>
      <trkpt lat="47.29888" lon="4.92635">
        <ele>563.217</ele>
        <time>2012-04-13T09:26:08Z</time>
      </trkpt>
      <trkpt lat="47.29888" lon="4.9264">
        <ele>563.464</ele>
        <time>2012-04-13T09:26:19Z</time>
      </trkpt>
      <trkpt lat="47.29888" lon="4.92642">
        <ele>564.416</ele>
        <time>2012-04-13T09:26:30Z</time>
      </trkpt>
      <trkpt lat="47.29888" lon="4.92642">
        <ele>564.416</ele>
        <time>2012-04-13T09:26:41Z</time>
      </trkpt>
      <trkpt lat="47.29887" lon="4.92643">
        <ele>565.611</ele>
        <time>2012-04-13T09:26:52Z</time>
      </trkpt>
      <trkpt lat="47.29885" lon="4.92647">
        <ele>567.041</ele>
        <time>2012-04-13T09:27:03Z</time>
      </trkpt>
      <trkpt lat="47.29883" lon="4.92657">
        <ele>569.039</ele>
        <time>2012-04-13T09:27:14Z</time>
      </trkpt>
      <trkpt lat="47.2988" lon="4.92667">
        <ele>570.019</ele>
        <time>2012-04-13T09:27:25Z</time>
      </trkpt>
      <trkpt lat="47.2988" lon="4.92673">
        <ele>571.482</ele>
        <time>2012-04-13T09:27:36Z</time>
      </trkpt>
      <trkpt lat="47.29877" lon="4.9268">
        <ele>573.134</ele>
        <time>2012-04-13T09:27:47Z</time>
      </trkpt>
      <trkpt lat="47.29875" lon="4.92685">
        <ele>576.52</ele>
        <time>2012-04-13T09:27:58Z</time>
      </trkpt>
      <trkpt lat="47.29873" lon="4.9269">
        <ele>578.078</ele>
        <time>2012-04-13T09:28:09Z</time>
      </trkpt>
      <trkpt lat="47.29872" lon="4.92693">
        <ele>578.698</ele>
        <time>2012-04-13T09:28:20Z</time>
      </trkpt>
      <trkpt lat="47.2987" lon="4.92698">
        <ele>580.457</ele>
        <time>2012-04-13T09:28:31Z</time>
      </trkpt>
      <trkpt lat="47.2987" lon="4.92698">
        <ele>580.457</ele>
        <time>2012-04-13T09:28:42Z</time>
      </trkpt>
      <trkpt lat="47.29867" lon="4.92705">
        <ele>581.436</ele>
        <time>2012-04-13T09:28:53Z</time>
      </trkpt>
      <trkpt lat="47.29865" lon="4.92718">
        <ele>584.383</ele>
        <time>2012-04-13T09:29:04Z</time>
      </trkpt>
      <trkpt lat="47.29863" lon="4.92728">
        <ele>587.252</ele>
        <time>2012-04-13T09:29:15Z</time>
      </trkpt>
      <trkpt lat="47.29862" lon="4.9274">
        <ele>588.598</ele>
        <time>2012-04-13T09:29:26Z</time>
      </trkpt>
      <trkpt lat="47.2986" lon="4.92747">
        <ele>589.889</ele>
        <time>2012-04-13T09:29:37Z</time>
      </trkpt>
      <trkpt lat="47.29862" lon="4.92747">
        <ele>590.231</ele>
        <time>2012-04-13T09:29:48Z</time>
      </trkpt>
      <trkpt lat="47.29862" lon="4.92747">
        <ele>590.413</ele>
        <time>2012-04-13T09:29:59Z</time>
      </trkpt>
      <trkpt lat="47.2986" lon="4.92748">
        <ele>589.713</ele>
        <time>2012-04-13T09:30:10Z</time>
      </trkpt>
      <trkpt lat="47.2986" lon="4.92748">
        <ele>589.713</ele>
        <time>2012-04-13T09:30:21Z</time>
      </trkpt>
      <trkpt lat="47.2986" lon="4.92748">
        <ele>589.398</ele>
        <time>2012-04-13T09:30:32Z</time>
      </trkpt>
      <trkpt lat="47.2986" lon="4.92748">
        <ele>589.398</ele>
        <time>2012-04-13T09:30:43Z</time>
      </trkpt>
      <trkpt lat="47.2986" lon="4.92748">
        <ele>589.14</ele>
        <time>2012-04-13T09:30:54Z</time>
      </trkpt>
      <trkpt lat="47.2986" lon="4.92748">
        <ele>589.14</ele>
        <time>2012-04-13T09:31:05Z</time>
      </trkpt>
      <trkpt lat="47.2986" lon="4.92748">
        <ele>589.284</ele>
        <time>2012-04-13T09:31:16Z</time>
      </trkpt>
      <trkpt lat="47.2986" lon="4.92748">
        <ele>589.649</ele>
        <time>2012-04-13T09:31:27Z</time>
      </trkpt>
      <trkpt lat="47.2986" lon="4.9275">
        <ele>589.624</ele>
        <time>2012-04-13T09:31:38Z</time>
      </trkpt>
      <trkpt lat="47.2986" lon="4.9275">
        <ele>589.624</ele>
        <time>2012-04-13T09:31:49Z</time>
      </trkpt>
      <trkpt lat="47.2986" lon="4.9275">
        <ele>589.953</ele>
        <time>2012-04-13T09:32:00Z</time>
      </trkpt>
      <trkpt lat="47.2986" lon="4.9275">
        <ele>589.953</ele>
        <time>2012-04-13T09:32:11Z</time>
      </trkpt>
      <trkpt lat="47.2986" lon="4.9275">
        <ele>589.966</ele>
        <time>2012-04-13T09:32:22Z</time>
      </trkpt>
      <trkpt lat="47.2986" lon="4.9275">
        <ele>589.966</ele>
        <time>2012-04-13T09:32:33Z</time>
      </trkpt>
      <trkpt lat="47.2986" lon="4.9275">
        <ele>590.214</ele>
        <time>2012-04-13T09:32:44Z</time>
      </trkpt>
      <trkpt lat="47.2986" lon="4.9275">
        <ele>590.214</ele>
        <time>2012-04-13T09:32:55Z</time>
      </trkpt>
      <trkpt lat="47.2986" lon="4.9275">
        <ele>590.412</ele>
        <time>2012-04-13T09:33:06Z</time>
      </trkpt>
      <trkpt lat="47.2986" lon="4.9275">
        <ele>590.909</ele>
        <time>2012-04-13T09:33:17Z</time>
      </trkpt>
      <trkpt lat="47.2986" lon="4.9275">
        <ele>591.029</ele>
        <time>2012-04-13T09:33:28Z</time>
      </trkpt>
      <trkpt lat="47.29857" lon="4.92748">
        <ele>594.173</ele>
        <time>2012-04-13T09:33:39Z</time>
      </trkpt>
      <trkpt lat="47.2985" lon="4.92747">
        <ele>594.309</ele>
        <time>2012-04-13T09:33:50Z</time>
      </trkpt>
      <trkpt lat="47.29845" lon="4.92742">
        <ele>595.194</ele>
        <time>2012-04-13T09:34:01Z</time>
      </trkpt>
      <trkpt lat="47.29838" lon="4.92737">
        <ele>596.686</ele>
        <time>2012-04-13T09:34:12Z</time>
      </trkpt>
      <trkpt lat="47.2983" lon="4.92723">
        <ele>599.213</ele>
        <time>2012-04-13T09:34:23Z</time>
      </trkpt>
      <trkpt lat="47.2982" lon="4.92708">
        <ele>601.168</ele>
        <time>2012-04-13T09:34:34Z</time>
      </trkpt>
      <trkpt lat="47.29808" lon="4.92697">
        <ele>602.578</ele>
        <time>2012-04-13T09:34:45Z</time>
      </trkpt>
      <trkpt lat="47.29798" lon="4.92682">
        <ele>604.602</ele>
        <time>2012-04-13T09:34:56Z</time>
      </trkpt>
      <trkpt lat="47.29788" lon="4.92672">
        <ele>605.36</ele>
        <time>2012-04-13T09:35:07Z</time>
      </trkpt>
      <trkpt lat="47.29775" lon="4.92657">
        <ele>606.815</ele>
        <time>2012-04-13T09:35:18Z</time>
      </trkpt>
      <trkpt lat="47.29763" lon="4.9264">
        <ele>610.55</ele>
        <time>2012-04-13T09:35:29Z</time>
      </trkpt>
      <trkpt lat="47.29755" lon="4.9263">
        <ele>612.155</ele>
        <time>2012-04-13T09:35:40Z</time>
      </trkpt>
      <trkpt lat="47.29745" lon="4.92615">
        <ele>612.761</ele>
        <time>2012-04-13T09:35:51Z</time>
      </trkpt>
      <trkpt lat="47.29735" lon="4.926">
        <ele>613.157</ele>
        <time>2012-04-13T09:36:02Z</time>
      </trkpt>
      <trkpt lat="47.29723" lon="4.92587">
        <ele>615.891</ele>
        <time>2012-04-13T09:36:13Z</time>
      </trkpt>
      <trkpt lat="47.29708" lon="4.92578">
        <ele>615.183</ele>
        <time>2012-04-13T09:36:24Z</time>
      </trkpt>
      <trkpt lat="47.2969" lon="4.92573">
        <ele>614.498</ele>
        <time>2012-04-13T09:36:35Z</time>
      </trkpt>
      <trkpt lat="47.29675" lon="4.92568">
        <ele>614.015</ele>
        <time>2012-04-13T09:36:46Z</time>
      </trkpt>
      <trkpt lat="47.29662" lon="4.92565">
        <ele>613.606</ele>
        <time>2012-04-13T09:36:57Z</time>
      </trkpt>
      <trkpt lat="47.29645" lon="4.92563">
        <ele>613.372</ele>
        <time>2012-04-13T09:37:08Z</time>
      </trkpt>
      <trkpt lat="47.29632" lon="4.92563">
        <ele>613.092</ele>
        <time>2012-04-13T09:37:19Z</time>
      </trkpt>
      <trkpt lat="47.29615" lon="4.92563">
        <ele>611.193</ele>
        <time>2012-04-13T09:37:30Z</time>
      </trkpt>
      <trkpt lat="47.29598" lon="4.92565">
        <ele>609.839</ele>
        <time>2012-04-13T09:37:41Z</time>
      </trkpt>
      <trkpt lat="47.29583" lon="4.9257">
        <ele>610.29</ele>
        <time>2012-04-13T09:37:52Z</time>
      </trkpt>
      <trkpt lat="47.29567" lon="4.92575">
        <ele>610.7</ele>
        <time>2012-04-13T09:38:03Z</time>
      </trkpt>
      <trkpt lat="47.29558" lon="4.92577">
        <ele>611.867</ele>
        <time>2012-04-13T09:38:14Z</time>
      </trkpt>
      <trkpt lat="47.29542" lon="4.92578">
        <ele>612.333</ele>
        <time>2012-04-13T09:38:25Z</time>
      </trkpt>
      <trkpt lat="47.2953" lon="4.92578">
        <ele>613.423</ele>
        <time>2012-04-13T09:38:36Z</time>
      </trkpt>
      <trkpt lat="47.29515" lon="4.92575">
        <ele>614.076</ele>
        <time>2012-04-13T09:38:47Z</time>
      </trkpt>
      <trkpt lat="47.29498" lon="4.92572">
        <ele>613.515</ele>
        <time>2012-04-13T09:38:58Z</time>
      </trkpt>
      <trkpt lat="47.29485" lon="4.92565">
        <ele>613.448</ele>
        <time>2012-04-13T09:39:09Z</time>
      </trkpt>
      <trkpt lat="47.29473" lon="4.9256">
        <ele>613.505</ele>
        <time>2012-04-13T09:39:20Z</time>
      </trkpt>
      <trkpt lat="47.29458" lon="4.92552">
        <ele>614.649</ele>
        <time>2012-04-13T09:39:31Z</time>
      </trkpt>
      <trkpt lat="47.29445" lon="4.92547">
        <ele>615.329</ele>
        <time>2012-04-13T09:39:42Z</time>
      </trkpt>
      <trkpt lat="47.2943" lon="4.92538">
        <ele>614.685</ele>
        <time>2012-04-13T09:39:53Z</time>
      </trkpt>
      <trkpt lat="47.29413" lon="4.92532">
        <ele>613.638</ele>
        <time>2012-04-13T09:40:04Z</time>
      </trkpt>
      <trkpt lat="47.29403" lon="4.92525">
        <ele>613.183</ele>
        <time>2012-04-13T09:40:15Z</time>
      </trkpt>
      <trkpt lat="47.2939" lon="4.9251">
        <ele>613.063</ele>
        <time>2012-04-13T09:40:26Z</time>
      </trkpt>
      <trkpt lat="47.29378" lon="4.92497">
        <ele>613.722</ele>
        <time>2012-04-13T09:40:37Z</time>
      </trkpt>
      <trkpt lat="47.29368" lon="4.92482">
        <ele>614.863</ele>
        <time>2012-04-13T09:40:48Z</time>
      </trkpt>
      <trkpt lat="47.29353" lon="4.92465">
        <ele>615.919</ele>
        <time>2012-04-13T09:40:59Z</time>
      </trkpt>
      <trkpt lat="47.29342" lon="4.92455">
        <ele>617.468</ele>
        <time>2012-04-13T09:41:10Z</time>
      </trkpt>
      <trkpt lat="47.2933" lon="4.92445">
        <ele>618.93</ele>
        <time>2012-04-13T09:41:21Z</time>
      </trkpt>
      <trkpt lat="47.29317" lon="4.92432">
        <ele>618.252</ele>
        <time>2012-04-13T09:41:32Z</time>
      </trkpt>
      <trkpt lat="47.29303" lon="4.92422">
        <ele>618.914</ele>
        <time>2012-04-13T09:41:43Z</time>
      </trkpt>
      <trkpt lat="47.29292" lon="4.9241">
        <ele>621.811</ele>
        <time>2012-04-13T09:41:54Z</time>
      </trkpt>
      <trkpt lat="47.29278" lon="4.92397">
        <ele>622.855</ele>
        <time>2012-04-13T09:42:05Z</time>
      </trkpt>
      <trkpt lat="47.29265" lon="4.92387">
        <ele>623.673</ele>
        <time>2012-04-13T09:42:16Z</time>
      </trkpt>
      <trkpt lat="47.29252" lon="4.92375">
        <ele>626.004</ele>
        <time>2012-04-13T09:42:27Z</time>
      </trkpt>
      <trkpt lat="47.2924" lon="4.92363">
        <ele>625.863</ele>
        <time>2012-04-13T09:42:38Z</time>
      </trkpt>
      <trkpt lat="47.29225" lon="4.92352">
        <ele>626.087</ele>
        <time>2012-04-13T09:42:49Z</time>
      </trkpt>
      <trkpt lat="47.29207" lon="4.92345">
        <ele>626.589</ele>
        <time>2012-04-13T09:43:00Z</time>
      </trkpt>
      <trkpt lat="47.29193" lon="4.92343">
        <ele>624.667</ele>
        <time>2012-04-13T09:43:11Z</time>
      </trkpt>
      <trkpt lat="47.29175" lon="4.9234">
        <ele>623.891</ele>
        <time>2012-04-13T09:43:22Z</time>
      </trkpt>
      <trkpt lat="47.29158" lon="4.9234">
        <ele>623.187</ele>
        <time>2012-04-13T09:43:33Z</time>
      </trkpt>
      <trkpt lat="47.29145" lon="4.9234">
        <ele>623.156</ele>
        <time>2012-04-13T09:43:44Z</time>
      </trkpt>
      <trkpt lat="47.29128" lon="4.92338">
        <ele>620.664</ele>
        <time>2012-04-13T09:43:55Z</time>
      </trkpt>
      <trkpt lat="47.29112" lon="4.92335">
        <ele>619.559</ele>
        <time>2012-04-13T09:44:06Z</time>
      </trkpt>
      <trkpt lat="47.29093" lon="4.92328">
        <ele>618.372</ele>
        <time>2012-04-13T09:44:17Z</time>
      </trkpt>
      <trkpt lat="47.29082" lon="4.92325">
        <ele>617.613</ele>
        <time>2012-04-13T09:44:28Z</time>
      </trkpt>
      <trkpt lat="47.29065" lon="4.92322">
        <ele>617.418</ele>
        <time>2012-04-13T09:44:39Z</time>
      </trkpt>
      <trkpt lat="47.29053" lon="4.92317">
        <ele>617.178</ele>
        <time>2012-04-13T09:44:50Z</time>
      </trkpt>
      <trkpt lat="47.29037" lon="4.9231">
        <ele>615.975</ele>
        <time>2012-04-13T09:45:01Z</time>
      </trkpt>
      <trkpt lat="47.2902" lon="4.92307">
        <ele>614.426</ele>
        <time>2012-04-13T09:45:12Z</time>
      </trkpt>
      <trkpt lat="47.29002" lon="4.923">
        <ele>613.269</ele>
        <time>2012-04-13T09:45:23Z</time>
      </trkpt>
      <trkpt lat="47.28985" lon="4.92292">
        <ele>614.236</ele>
        <time>2012-04-13T09:45:34Z</time>
      </trkpt>
      <trkpt lat="47.28972" lon="4.92297">
        <ele>615.572</ele>
        <time>2012-04-13T09:45:45Z</time>
      </trkpt>
      <trkpt lat="47.28962" lon="4.92312">
        <ele>617.841</ele>
        <time>2012-04-13T09:45:56Z</time>
      </trkpt>
      <trkpt lat="47.28952" lon="4.9233">
        <ele>617.049</ele>
        <time>2012-04-13T09:46:07Z</time>
      </trkpt>
      <trkpt lat="47.28943" lon="4.92347">
        <ele>617.231</ele>
        <time>2012-04-13T09:46:18Z</time>
      </trkpt>
      <trkpt lat="47.28937" lon="4.92365">
        <ele>616.509</ele>
        <time>2012-04-13T09:46:29Z</time>
      </trkpt>
      <trkpt lat="47.28928" lon="4.92387">
        <ele>611.692</ele>
        <time>2012-04-13T09:46:40Z</time>
      </trkpt>
      <trkpt lat="47.28923" lon="4.924">
        <ele>608.947</ele>
        <time>2012-04-13T09:46:51Z</time>
      </trkpt>
      <trkpt lat="47.28917" lon="4.92415">
        <ele>607.709</ele>
        <time>2012-04-13T09:47:02Z</time>
      </trkpt>
      <trkpt lat="47.28912" lon="4.92437">
        <ele>607.922</ele>
        <time>2012-04-13T09:47:13Z</time>
      </trkpt>
      <trkpt lat="47.28907" lon="4.92455">
        <ele>610.636</ele>
        <time>2012-04-13T09:47:24Z</time>
      </trkpt>
      <trkpt lat="47.289" lon="4.92472">
        <ele>611.515</ele>
        <time>2012-04-13T09:47:35Z</time>
      </trkpt>
      <trkpt lat="47.28893" lon="4.92487">
        <ele>612.315</ele>
        <time>2012-04-13T09:47:46Z</time>
      </trkpt>
      <trkpt lat="47.28888" lon="4.92507">
        <ele>612.703</ele>
        <time>2012-04-13T09:47:57Z</time>
      </trkpt>
      <trkpt lat="47.28882" lon="4.92522">
        <ele>613.185</ele>
        <time>2012-04-13T09:48:08Z</time>
      </trkpt>
      <trkpt lat="47.28877" lon="4.92543">
        <ele>612.243</ele>
        <time>2012-04-13T09:48:19Z</time>
      </trkpt>
      <trkpt lat="47.28877" lon="4.92568">
        <ele>611.915</ele>
        <time>2012-04-13T09:48:30Z</time>
      </trkpt>
      <trkpt lat="47.2887" lon="4.92588">
        <ele>613.857</ele>
        <time>2012-04-13T09:48:41Z</time>
      </trkpt>
      <trkpt lat="47.28867" lon="4.92608">
        <ele>615.507</ele>
        <time>2012-04-13T09:48:52Z</time>
      </trkpt>
      <trkpt lat="47.28858" lon="4.92627">
        <ele>617.682</ele>
        <time>2012-04-13T09:49:03Z</time>
      </trkpt>
      <trkpt lat="47.28857" lon="4.92645">
        <ele>618.358</ele>
        <time>2012-04-13T09:49:14Z</time>
      </trkpt>
      <trkpt lat="47.28848" lon="4.92663">
        <ele>618.61</ele>
        <time>2012-04-13T09:49:25Z</time>
      </trkpt>
      <trkpt lat="47.2884" lon="4.9268">
        <ele>618.214</ele>
        <time>2012-04-13T09:49:36Z</time>
      </trkpt>
      <trkpt lat="47.28835" lon="4.92695">
        <ele>619.293</ele>
        <time>2012-04-13T09:49:47Z</time>
      </trkpt>
      <trkpt lat="47.28822" lon="4.9271">
        <ele>619.066</ele>
        <time>2012-04-13T09:49:58Z</time>
      </trkpt>
      <trkpt lat="47.28812" lon="4.92722">
        <ele>618.616</ele>
        <time>2012-04-13T09:50:09Z</time>
      </trkpt>
      <trkpt lat="47.28812" lon="4.92723">
        <ele>618.502</ele>
        <time>2012-04-13T09:50:20Z</time>
      </trkpt>
      <trkpt lat="47.28812" lon="4.92723">
        <ele>618.387</ele>
        <time>2012-04-13T09:50:31Z</time>
      </trkpt>
      <trkpt lat="47.28812" lon="4.92723">
        <ele>617.96</ele>
        <time>2012-04-13T09:50:42Z</time>
      </trkpt>
      <trkpt lat="47.2881" lon="4.92723">
        <ele>617.562</ele>
        <time>2012-04-13T09:50:53Z</time>
      </trkpt>
      <trkpt lat="47.2881" lon="4.92723">
        <ele>617.562</ele>
        <time>2012-04-13T09:51:04Z</time>
      </trkpt>
      <trkpt lat="47.2881" lon="4.92723">
        <ele>617.562</ele>
        <time>2012-04-13T09:51:15Z</time>
      </trkpt>
      <trkpt lat="47.28808" lon="4.92728">
        <ele>617.336</ele>
        <time>2012-04-13T09:51:26Z</time>
      </trkpt>
      <trkpt lat="47.28808" lon="4.92733">
        <ele>614.554</ele>
        <time>2012-04-13T09:51:37Z</time>
      </trkpt>
      <trkpt lat="47.28808" lon="4.92738">
        <ele>613.714</ele>
        <time>2012-04-13T09:51:48Z</time>
      </trkpt>
      <trkpt lat="47.28805" lon="4.92747">
        <ele>611.024</ele>
        <time>2012-04-13T09:51:59Z</time>
      </trkpt>
      <trkpt lat="47.28805" lon="4.92753">
        <ele>608.843</ele>
        <time>2012-04-13T09:52:10Z</time>
      </trkpt>
      <trkpt lat="47.28808" lon="4.92758">
        <ele>609.458</ele>
        <time>2012-04-13T09:52:21Z</time>
      </trkpt>
      <trkpt lat="47.2881" lon="4.92767">
        <ele>608.603</ele>
        <time>2012-04-13T09:52:32Z</time>
      </trkpt>
      <trkpt lat="47.28813" lon="4.92775">
        <ele>607.478</ele>
        <time>2012-04-13T09:52:43Z</time>
      </trkpt>
      <trkpt lat="47.28815" lon="4.92782">
        <ele>608.208</ele>
        <time>2012-04-13T09:52:54Z</time>
      </trkpt>
      <trkpt lat="47.2882" lon="4.92792">
        <ele>608.327</ele>
        <time>2012-04-13T09:53:05Z</time>
      </trkpt>
      <trkpt lat="47.28828" lon="4.92798">
        <ele>608.892</ele>
        <time>2012-04-13T09:53:16Z</time>
      </trkpt>
      <trkpt lat="47.28838" lon="4.92803">
        <ele>605.66</ele>
        <time>2012-04-13T09:53:27Z</time>
      </trkpt>
      <trkpt lat="47.28848" lon="4.92812">
        <ele>602.598</ele>
        <time>2012-04-13T09:53:38Z</time>
      </trkpt>
      <trkpt lat="47.28868" lon="4.92835">
        <ele>600.816</ele>
        <time>2012-04-13T09:53:49Z</time>
      </trkpt>
      <trkpt lat="47.2888" lon="4.92853">
        <ele>601.29</ele>
        <time>2012-04-13T09:54:00Z</time>
      </trkpt>
      <trkpt lat="47.28893" lon="4.92873">
        <ele>599.936</ele>
        <time>2012-04-13T09:54:11Z</time>
      </trkpt>
      <trkpt lat="47.28912" lon="4.92898">
        <ele>598.062</ele>
        <time>2012-04-13T09:54:22Z</time>
      </trkpt>
      <trkpt lat="47.28933" lon="4.92922">
        <ele>594.367</ele>
        <time>2012-04-13T09:54:33Z</time>
      </trkpt>
      <trkpt lat="47.28953" lon="4.92937">
        <ele>591.599</ele>
        <time>2012-04-13T09:54:44Z</time>
      </trkpt>
      <trkpt lat="47.28968" lon="4.9296">
        <ele>590.186</ele>
        <time>2012-04-13T09:54:55Z</time>
      </trkpt>
      <trkpt lat="47.28975" lon="4.92985">
        <ele>584.291</ele>
        <time>2012-04-13T09:55:06Z</time>
      </trkpt>
      <trkpt lat="47.28982" lon="4.93003">
        <ele>579.804</ele>
        <time>2012-04-13T09:55:17Z</time>
      </trkpt>
      <trkpt lat="47.28987" lon="4.93028">
        <ele>571.467</ele>
        <time>2012-04-13T09:55:28Z</time>
      </trkpt>
      <trkpt lat="47.28993" lon="4.93053">
        <ele>559.118</ele>
        <time>2012-04-13T09:55:39Z</time>
      </trkpt>
      <trkpt lat="47.29002" lon="4.93075">
        <ele>550.853</ele>
        <time>2012-04-13T09:55:50Z</time>
      </trkpt>
      <trkpt lat="47.29018" lon="4.93097">
        <ele>547.861</ele>
        <time>2012-04-13T09:56:01Z</time>
      </trkpt>
      <trkpt lat="47.29018" lon="4.93108">
        <ele>544.696</ele>
        <time>2012-04-13T09:56:12Z</time>
      </trkpt>
      <trkpt lat="47.29027" lon="4.93135">
        <ele>546.8</ele>
        <time>2012-04-13T09:56:23Z</time>
      </trkpt>
      <trkpt lat="47.29037" lon="4.93157">
        <ele>549.646</ele>
        <time>2012-04-13T09:56:34Z</time>
      </trkpt>
      <trkpt lat="47.29045" lon="4.93172">
        <ele>547.91</ele>
        <time>2012-04-13T09:56:45Z</time>
      </trkpt>
      <trkpt lat="47.29053" lon="4.93188">
        <ele>544.16</ele>
        <time>2012-04-13T09:56:56Z</time>
      </trkpt>
      <trkpt lat="47.29062" lon="4.93208">
        <ele>539.314</ele>
        <time>2012-04-13T09:57:07Z</time>
      </trkpt>
      <trkpt lat="47.29072" lon="4.93232">
        <ele>534.164</ele>
        <time>2012-04-13T09:57:18Z</time>
      </trkpt>
      <trkpt lat="47.2908" lon="4.93248">
        <ele>532.208</ele>
        <time>2012-04-13T09:57:29Z</time>
      </trkpt>
      <trkpt lat="47.29088" lon="4.9327">
        <ele>529.672</ele>
        <time>2012-04-13T09:57:40Z</time>
      </trkpt>
      <trkpt lat="47.29093" lon="4.9329">
        <ele>527.459</ele>
        <time>2012-04-13T09:57:51Z</time>
      </trkpt>
      <trkpt lat="47.29097" lon="4.93312">
        <ele>525.736</ele>
        <time>2012-04-13T09:58:02Z</time>
      </trkpt>
      <trkpt lat="47.29098" lon="4.93337">
        <ele>524.042</ele>
        <time>2012-04-13T09:58:13Z</time>
      </trkpt>
      <trkpt lat="47.291" lon="4.93362">
        <ele>522.239</ele>
        <time>2012-04-13T09:58:24Z</time>
      </trkpt>
      <trkpt lat="47.29103" lon="4.93385">
        <ele>522.384</ele>
        <time>2012-04-13T09:58:35Z</time>
      </trkpt>
      <trkpt lat="47.2911" lon="4.93407">
        <ele>521.49</ele>
        <time>2012-04-13T09:58:46Z</time>
      </trkpt>
      <trkpt lat="47.29117" lon="4.93428">
        <ele>516.744</ele>
        <time>2012-04-13T09:58:57Z</time>
      </trkpt>
      <trkpt lat="47.29125" lon="4.9345">
        <ele>511.051</ele>
        <time>2012-04-13T09:59:08Z</time>
      </trkpt>
      <trkpt lat="47.29133" lon="4.93473">
        <ele>506.547</ele>
        <time>2012-04-13T09:59:19Z</time>
      </trkpt>
      <trkpt lat="47.29142" lon="4.93497">
        <ele>500.513</ele>
        <time>2012-04-13T09:59:30Z</time>
      </trkpt>
      <trkpt lat="47.2915" lon="4.93518">
        <ele>497.445</ele>
        <time>2012-04-13T09:59:41Z</time>
      </trkpt>
      <trkpt lat="47.2916" lon="4.93537">
        <ele>496.026</ele>
        <time>2012-04-13T09:59:52Z</time>
      </trkpt>
      <trkpt lat="47.29172" lon="4.93553">
        <ele>496.558</ele>
        <time>2012-04-13T10:00:03Z</time>
      </trkpt>
      <trkpt lat="47.29178" lon="4.9357">
        <ele>496.037</ele>
        <time>2012-04-13T10:00:14Z</time>
      </trkpt>
      <trkpt lat="47.29185" lon="4.93593">
        <ele>493.865</ele>
        <time>2012-04-13T10:00:25Z</time>
      </trkpt>
      <trkpt lat="47.29192" lon="4.93613">
        <ele>492.76</ele>
        <time>2012-04-13T10:00:36Z</time>
      </trkpt>
      <trkpt lat="47.292" lon="4.93632">
        <ele>490.817</ele>
        <time>2012-04-13T10:00:47Z</time>
      </trkpt>
      <trkpt lat="47.29208" lon="4.93648">
        <ele>488.295</ele>
        <time>2012-04-13T10:00:58Z</time>
      </trkpt>
      <trkpt lat="47.29218" lon="4.93668">
        <ele>486.67</ele>
        <time>2012-04-13T10:01:09Z</time>
      </trkpt>
      <trkpt lat="47.29225" lon="4.93687">
        <ele>485.122</ele>
        <time>2012-04-13T10:01:20Z</time>
      </trkpt>
      <trkpt lat="47.29233" lon="4.93703">
        <ele>483.665</ele>
        <time>2012-04-13T10:01:31Z</time>
      </trkpt>
      <trkpt lat="47.29243" lon="4.93723">
        <ele>484.077</ele>
        <time>2012-04-13T10:01:42Z</time>
      </trkpt>
      <trkpt lat="47.2925" lon="4.9374">
        <ele>482.755</ele>
        <time>2012-04-13T10:01:53Z</time>
      </trkpt>
      <trkpt lat="47.29255" lon="4.93762">
        <ele>482.039</ele>
        <time>2012-04-13T10:02:04Z</time>
      </trkpt>
      <trkpt lat="47.2926" lon="4.93782">
        <ele>481.591</ele>
        <time>2012-04-13T10:02:15Z</time>
      </trkpt>
      <trkpt lat="47.29265" lon="4.938">
        <ele>481.91</ele>
        <time>2012-04-13T10:02:26Z</time>
      </trkpt>
      <trkpt lat="47.29272" lon="4.93822">
        <ele>482.266</ele>
        <time>2012-04-13T10:02:37Z</time>
      </trkpt>
      <trkpt lat="47.2928" lon="4.93845">
        <ele>480.376</ele>
        <time>2012-04-13T10:02:48Z</time>
      </trkpt>
      <trkpt lat="47.29288" lon="4.9387">
        <ele>478.544</ele>
        <time>2012-04-13T10:02:59Z</time>
      </trkpt>
      <trkpt lat="47.29295" lon="4.9389">
        <ele>477.061</ele>
        <time>2012-04-13T10:03:10Z</time>
      </trkpt>
      <trkpt lat="47.29302" lon="4.93908">
        <ele>477.576</ele>
        <time>2012-04-13T10:03:21Z</time>
      </trkpt>
      <trkpt lat="47.29302" lon="4.93928">
        <ele>478.229</ele>
        <time>2012-04-13T10:03:32Z</time>
      </trkpt>
      <trkpt lat="47.293" lon="4.93952">
        <ele>479.44</ele>
        <time>2012-04-13T10:03:43Z</time>
      </trkpt>
      <trkpt lat="47.29292" lon="4.93965">
        <ele>478.341</ele>
        <time>2012-04-13T10:03:54Z</time>
      </trkpt>
      <trkpt lat="47.2928" lon="4.93967">
        <ele>477.125</ele>
        <time>2012-04-13T10:04:05Z</time>
      </trkpt>
      <trkpt lat="47.29272" lon="4.93967">
        <ele>476.53</ele>
        <time>2012-04-13T10:04:16Z</time>
      </trkpt>
      <trkpt lat="47.29258" lon="4.9397">
        <ele>477.771</ele>
        <time>2012-04-13T10:04:27Z</time>
      </trkpt>
      <trkpt lat="47.29247" lon="4.93967">
        <ele>479.172</ele>
        <time>2012-04-13T10:04:38Z</time>
      </trkpt>
      <trkpt lat="47.29235" lon="4.93968">
        <ele>478.914</ele>
        <time>2012-04-13T10:04:49Z</time>
      </trkpt>
      <trkpt lat="47.29235" lon="4.93968">
        <ele>478.901</ele>
        <time>2012-04-13T10:05:00Z</time>
      </trkpt>
    </trkseg>
  </trk>
</gpx>